Terminal Aerodrome Forecast
Issued by NWS Cleveland, OH

Home | Current Version | Previous Version | Graphics & Text | Print | Product List | Glossary On
Versions: 1 2 3 4 5 6 7 8 9 10 11 12 13 14 15 16 17 18
000
FTUS41 KCLE 131933 AAA
TAFMFD
TAF AMD
KMFD 131933Z 1320/1418 15010G15KT 4SM -SN OVC035
     FM132100 19012KT P6SM OVC050
     FM132200 18011KT 3SM -SN OVC035
     FM140100 18011KT 3/4SM -SHSN OVC010
     FM140800 33010KT P6SM BKN007 OVC012
     FM141200 33009KT P6SM SCT007 OVC012=

USA.gov is the U.S. government's official web portal to all federal, state and local government web resources and services.